Aeroporto :
LOGIN :

Iscrizione | Disclaimer

   EN    FR    IT 

 










Sommario :    VFR   VFR Marginale   IFR   IFR Intensivo   IFR Molto Intensivo
Visibilità : 
Base nubi : 
>= 8 km
>= 3000ft
5 / 8 km
1000 / 3000 ft
1500m / 5 km
500 / 1000 ft
800 / 1500m
200 / 500 ft
< 800m
< 200 ft
Simboli :   Temporali  Nebbia  Neve Forte  Precipitazioni Forti  Vento > 20 kt
SIGMETs :   Varie  Temporali  Ghiacco  Turbolenza  Onda orograficha  Ceneri Vulcaniche






- Altitudine del aeroporto : 13 ft
- Codice IATA : CAG


LIEE - Cagliari Elmas

ULTIMO METAR :
  • 192150Z 32011KT 9999 FEW040 12/07 Q1025

METARs OBSOLETI :
  • 192120Z 31012KT CAVOK 12/07 Q1025
  • 192050Z 32012KT 9999 FEW040 13/07 Q1025
  • 192020Z 32013KT 9999 FEW040 12/07 Q1025
  • 191950Z 32014KT 9999 FEW040 12/07 Q1024
  • 191920Z 32013KT 9999 FEW040 12/07 Q1024

TAF TAF LIEE
Valido dal 19 a 18 ore il 20 a 18 ore UTC


191700Z 1918/2018 33012KT 9999 SCT030



MetMap, La meteo Aeronautica in un colpo d'occhio ! - Copyright ORBIFLY Dicembre 2007 - Disclaimer

ORBIFLY MET'MAP TEAM :

Programmazione e sviluppo : Alexandra Zaïnal
Concezione : Baudouin d'Aumeries
Aiuto per la programmazione : Marc-Olivier Méhu
Supporto tecnico e logistico : Manuel Goepfert
Aiuto per la traduzione : Arnaldo La Scala

Contatto : metmap@orbifly.com




FONTI E CREDITI :

   NOAA